Natoma, Kansas
Current Conditions -  °F | °C
As of 2:53 PM on Thursday 23 Oct 2014 (Local Time) from KRSL Reporting Station
Clear Clear  
Wind Chill: 73°   Ceiling: Unl
Heat Index: 73°   Visibility: 10mi
Dew Point: 56°   Wind: 6mph
Humidity: 55%   Direction: 200°SSW
Pressure: 30.03"   Gusts: NA
Location:  39.19°N, 99.03°W
Report Text: KRSL 231953Z AUTO 20005KT 10SM CLR 23/13 A3003 RMK AO2 SLP159 T02280133
Loading
Personal Weather Stations






























Interactive Weather Map
Tropical Storm Tracking
New forecast layout! Learn more

10-Day Weather Forecast

Advertisements
Track Severe Weather on mobile